createdAt,value
2023-02-09T00:01:07.205Z,-0.99
2023-02-09T00:03:34.294Z,-1.04
2023-02-09T00:06:00.895Z,-1.08
2023-02-09T00:08:27.559Z,-1.12
2023-02-09T00:10:53.973Z,-1.17
2023-02-09T00:13:21.804Z,-1.20
2023-02-09T00:15:48.614Z,-1.23
2023-02-09T00:18:14.938Z,-1.26
2023-02-09T00:20:41.222Z,-1.29
2023-02-09T00:23:07.512Z,-1.31
2023-02-09T00:25:33.849Z,-1.33
2023-02-09T00:28:00.212Z,-1.37
2023-02-09T00:30:27.903Z,-1.40
2023-02-09T00:32:54.195Z,-1.41
2023-02-09T00:35:20.532Z,-1.42
2023-02-09T00:37:46.870Z,-1.47
2023-02-09T00:40:13.203Z,-1.50
2023-02-09T00:42:39.640Z,-1.54
2023-02-09T00:45:06.492Z,-1.55
2023-02-09T00:47:34.240Z,-1.59
2023-02-09T00:50:00.562Z,-1.64
2023-02-09T00:52:26.845Z,-1.69
2023-02-09T00:54:53.140Z,-1.73
2023-02-09T00:57:19.458Z,-1.76
2023-02-09T00:59:45.736Z,-1.82
2023-02-09T01:02:12.055Z,-1.90
2023-02-09T01:04:39.798Z,-1.97
2023-02-09T01:07:06.123Z,-1.97
2023-02-09T01:09:32.459Z,-1.96
2023-02-09T01:11:58.792Z,-1.99
2023-02-09T01:14:25.108Z,-2.07
2023-02-09T01:16:51.531Z,-2.09
2023-02-09T01:19:17.891Z,-2.08
2023-02-09T01:21:46.747Z,-2.11
2023-02-09T01:24:13.787Z,-2.13
2023-02-09T01:26:40.304Z,-2.16
2023-02-09T01:29:06.602Z,-2.17
2023-02-09T01:31:33.890Z,-2.24
2023-02-09T01:34:01.547Z,-2.30
2023-02-09T01:36:28.422Z,-2.31
2023-02-09T01:38:56.667Z,-2.30
2023-02-09T01:41:23.234Z,-2.29
2023-02-09T01:43:54.320Z,-2.34
2023-02-09T01:46:21.135Z,-2.34
2023-02-09T01:48:49.112Z,-2.36
2023-02-09T01:51:15.454Z,-2.35
2023-02-09T01:53:41.863Z,-2.35
2023-02-09T01:56:11.441Z,-2.34
2023-02-09T01:58:38.153Z,-2.34
2023-02-09T02:01:04.642Z,-2.31
2023-02-09T02:03:31.810Z,-2.30
2023-02-09T02:06:00.025Z,-2.30
2023-02-09T02:08:27.908Z,-2.28
2023-02-09T02:10:54.255Z,-2.28
2023-02-09T02:13:21.967Z,-2.26
2023-02-09T02:15:54.893Z,-2.24
2023-02-09T02:18:28.717Z,-2.30
2023-02-09T02:21:15.001Z,-2.32
2023-02-09T02:23:46.403Z,-2.33
2023-02-09T02:26:33.716Z,-2.33
2023-02-09T02:29:20.014Z,-2.32
2023-02-09T02:32:04.076Z,-2.33
2023-02-09T02:34:35.382Z,-2.33
2023-02-09T02:37:09.264Z,-2.33
2023-02-09T02:39:38.793Z,-2.33
2023-02-09T02:42:10.188Z,-2.32
2023-02-09T02:44:38.843Z,-2.31
2023-02-09T02:47:07.851Z,-2.30
2023-02-09T02:49:37.217Z,-2.31
2023-02-09T02:52:05.256Z,-2.35
2023-02-09T02:54:33.892Z,-2.46
2023-02-09T02:57:01.601Z,-2.51
2023-02-09T02:59:30.457Z,-2.55
2023-02-09T03:01:59.316Z,-2.56
2023-02-09T03:04:28.225Z,-2.58
2023-02-09T03:06:54.525Z,-2.60
2023-02-09T03:09:20.820Z,-2.59
2023-02-09T03:11:49.256Z,-2.58
2023-02-09T03:14:23.743Z,-2.53
2023-02-09T03:16:57.269Z,-2.51
2023-02-09T03:19:28.931Z,-2.47
2023-02-09T03:21:58.674Z,-2.46
2023-02-09T03:24:30.456Z,-2.43
2023-02-09T03:26:58.513Z,-2.40
2023-02-09T03:29:25.746Z,-2.39
2023-02-09T03:31:52.242Z,-2.36
2023-02-09T03:34:18.736Z,-2.35
2023-02-09T03:36:45.385Z,-2.36
2023-02-09T03:39:13.021Z,-2.36
2023-02-09T03:41:39.350Z,-2.37
2023-02-09T03:44:05.666Z,-2.38
2023-02-09T03:46:32.034Z,-2.38
2023-02-09T03:48:58.386Z,-2.39
2023-02-09T03:51:24.758Z,-2.50
2023-02-09T03:53:51.058Z,-2.61
2023-02-09T03:56:18.754Z,-2.67
2023-02-09T03:58:45.072Z,-2.72
2023-02-09T04:01:11.712Z,-2.72
2023-02-09T04:03:38.362Z,-2.72
2023-02-09T04:06:05.036Z,-2.71
2023-02-09T04:08:31.373Z,-2.72
2023-02-09T04:10:57.678Z,-2.73
2023-02-09T04:13:25.871Z,-2.75
2023-02-09T04:15:52.404Z,-2.81
2023-02-09T04:18:18.756Z,-2.84
2023-02-09T04:20:45.618Z,-2.86
2023-02-09T04:23:12.214Z,-2.89
2023-02-09T04:25:38.519Z,-2.86
2023-02-09T04:28:05.120Z,-2.82
2023-02-09T04:30:32.902Z,-2.78
2023-02-09T04:32:59.213Z,-2.72
2023-02-09T04:35:25.537Z,-2.70
2023-02-09T04:37:51.837Z,-2.66
2023-02-09T04:40:18.185Z,-2.63
2023-02-09T04:42:44.865Z,-2.62
2023-02-09T04:45:11.314Z,-2.59
2023-02-09T04:47:38.995Z,-2.55
2023-02-09T04:50:05.614Z,-2.49
2023-02-09T04:52:32.366Z,-2.48
2023-02-09T04:54:58.706Z,-2.48
2023-02-09T04:57:25.050Z,-2.46
2023-02-09T04:59:51.330Z,-2.47
2023-02-09T05:02:17.660Z,-2.47
2023-02-09T05:04:45.285Z,-2.46
2023-02-09T05:07:11.622Z,-2.44
2023-02-09T05:09:37.979Z,-2.46
2023-02-09T05:12:04.375Z,-2.49
2023-02-09T05:14:30.737Z,-2.49
2023-02-09T05:16:57.071Z,-2.51
2023-02-09T05:19:23.454Z,-2.52
2023-02-09T05:21:51.170Z,-2.55
2023-02-09T05:24:17.460Z,-2.67
2023-02-09T05:26:43.756Z,-2.71
2023-02-09T05:29:10.090Z,-2.75
2023-02-09T05:31:36.598Z,-2.73
2023-02-09T05:34:03.006Z,-2.72
2023-02-09T05:36:29.346Z,-2.70
2023-02-09T05:38:56.996Z,-2.70
2023-02-09T05:41:23.321Z,-2.68
2023-02-09T05:43:49.653Z,-2.70
2023-02-09T05:46:16.004Z,-2.70
2023-02-09T05:48:42.344Z,-2.76
2023-02-09T05:51:08.685Z,-2.89
2023-02-09T05:53:34.987Z,-2.91
2023-02-09T05:56:02.723Z,-2.88
2023-02-09T05:58:29.049Z,-2.87
2023-02-09T06:00:55.351Z,-2.92
2023-02-09T06:03:21.662Z,-2.91
2023-02-09T06:05:47.979Z,-2.91
2023-02-09T06:08:14.506Z,-2.96
2023-02-09T06:10:40.790Z,-2.97
2023-02-09T06:13:08.471Z,-2.97
2023-02-09T06:15:34.843Z,-3.02
2023-02-09T06:18:01.251Z,-3.03
2023-02-09T06:20:27.564Z,-3.03
2023-02-09T06:22:53.858Z,-3.02
2023-02-09T06:25:20.157Z,-3.04
2023-02-09T06:27:46.583Z,-3.05
2023-02-09T06:30:14.560Z,-3.04
2023-02-09T06:32:40.904Z,-3.03
2023-02-09T06:35:07.383Z,-3.03
2023-02-09T06:37:33.694Z,-3.02
2023-02-09T06:40:00.032Z,-3.04
2023-02-09T06:42:28.301Z,-3.06
2023-02-09T06:44:55.287Z,-3.06
2023-02-09T06:47:22.933Z,-3.03
2023-02-09T06:49:49.235Z,-3.01
2023-02-09T06:52:15.640Z,-3.02
2023-02-09T06:54:43.120Z,-3.03
2023-02-09T06:57:10.628Z,-3.00
2023-02-09T06:59:36.957Z,-2.99
2023-02-09T07:02:03.331Z,-2.99
2023-02-09T07:04:31.043Z,-2.96
2023-02-09T07:06:57.416Z,-2.94
2023-02-09T07:09:23.731Z,-2.94
2023-02-09T07:11:50.097Z,-2.99
2023-02-09T07:14:16.472Z,-3.02
2023-02-09T07:16:42.791Z,-3.01
2023-02-09T07:19:09.088Z,-3.00
2023-02-09T07:21:36.770Z,-2.98
2023-02-09T07:24:03.225Z,-2.98
2023-02-09T07:26:29.575Z,-2.96
2023-02-09T07:28:55.900Z,-2.91
2023-02-09T07:31:22.362Z,-2.90
2023-02-09T07:33:48.764Z,-2.89
2023-02-09T07:36:16.317Z,-2.81
2023-02-09T07:38:44.299Z,-2.72
2023-02-09T07:41:13.270Z,-2.64
2023-02-09T07:43:39.612Z,-2.58
2023-02-09T07:46:07.130Z,-2.56
2023-02-09T07:48:33.792Z,-2.52
2023-02-09T07:51:00.406Z,-2.45
2023-02-09T07:53:26.924Z,-2.39
2023-02-09T07:55:54.686Z,-2.32
2023-02-09T07:58:21.440Z,-2.27
2023-02-09T08:00:48.621Z,-2.21
2023-02-09T08:03:15.790Z,-2.12
2023-02-09T08:05:45.792Z,-2.06
2023-02-09T08:08:12.447Z,-2.00
2023-02-09T08:10:39.226Z,-1.92
2023-02-09T08:13:06.863Z,-1.86
2023-02-09T08:15:37.147Z,-1.78
2023-02-09T08:18:05.069Z,-1.71
2023-02-09T08:20:31.988Z,-1.64
2023-02-09T08:23:01.810Z,-1.57
2023-02-09T08:25:28.131Z,-1.49
2023-02-09T08:27:56.103Z,-1.42
2023-02-09T08:30:23.791Z,-1.37
2023-02-09T08:32:50.155Z,-1.32
2023-02-09T08:35:16.493Z,-1.26
2023-02-09T08:37:42.814Z,-1.21
2023-02-09T08:40:09.458Z,-1.14
2023-02-09T08:42:35.792Z,-1.08
2023-02-09T08:45:02.095Z,-1.00
2023-02-09T08:47:29.772Z,-0.94
2023-02-09T08:49:56.079Z,-0.89
2023-02-09T08:52:22.357Z,-0.81
2023-02-09T08:54:48.716Z,-0.76
2023-02-09T08:57:15.052Z,-0.67
2023-02-09T08:59:41.546Z,-0.60
2023-02-09T09:02:07.873Z,-0.53
2023-02-09T09:04:35.513Z,-0.44
2023-02-09T09:07:01.820Z,-0.34
2023-02-09T09:09:28.160Z,-0.27
2023-02-09T09:11:54.497Z,-0.19
2023-02-09T09:14:20.798Z,-0.11
2023-02-09T09:16:47.186Z,-0.04
2023-02-09T09:19:13.527Z,0.04
2023-02-09T09:21:41.181Z,0.09
2023-02-09T09:24:07.567Z,0.15
2023-02-09T09:26:34.010Z,0.21
2023-02-09T09:29:00.348Z,0.26
2023-02-09T09:31:26.818Z,0.35
2023-02-09T09:33:53.169Z,0.44
2023-02-09T09:36:19.449Z,0.51
2023-02-09T09:38:47.097Z,0.58
2023-02-09T09:41:21.090Z,0.64
2023-02-09T09:43:47.579Z,0.76
2023-02-09T09:46:16.182Z,0.84
2023-02-09T09:48:44.071Z,0.89
2023-02-09T09:51:12.290Z,0.95
2023-02-09T09:53:40.539Z,0.98
2023-02-09T09:56:09.521Z,1.06
2023-02-09T09:58:39.366Z,1.14
2023-02-09T10:01:05.725Z,1.21
2023-02-09T10:03:32.065Z,1.27
2023-02-09T10:06:00.622Z,1.34
2023-02-09T10:08:29.948Z,1.43
2023-02-09T10:10:57.305Z,1.56
2023-02-09T10:13:25.876Z,1.64
2023-02-09T10:15:53.268Z,1.71
2023-02-09T10:18:19.901Z,1.75
2023-02-09T10:20:47.614Z,1.79
2023-02-09T10:23:17.743Z,1.81
2023-02-09T10:25:51.442Z,1.81
2023-02-09T10:28:18.648Z,1.88
2023-02-09T10:30:46.763Z,1.92
2023-02-09T10:33:14.217Z,1.98
2023-02-09T10:35:43.409Z,2.06
2023-02-09T10:38:15.101Z,2.17
2023-02-09T10:40:41.796Z,2.25
2023-02-09T10:43:18.421Z,2.29
2023-02-09T10:45:47.455Z,2.35
2023-02-09T10:48:17.108Z,2.43
2023-02-09T10:50:48.429Z,2.48
2023-02-09T10:53:18.823Z,2.53
2023-02-09T10:55:45.406Z,2.56
2023-02-09T10:58:17.958Z,2.61
2023-02-09T11:00:48.517Z,2.67
2023-02-09T11:03:16.433Z,2.73
2023-02-09T11:05:43.783Z,2.75
2023-02-09T11:08:14.162Z,2.77
2023-02-09T11:10:43.053Z,2.80
2023-02-09T11:13:16.369Z,2.84
2023-02-09T11:15:46.749Z,2.90
2023-02-09T11:18:16.787Z,2.98
2023-02-09T11:20:45.748Z,3.08
2023-02-09T11:23:23.070Z,3.17
2023-02-09T11:25:54.343Z,3.25
2023-02-09T11:28:28.981Z,3.31
2023-02-09T11:31:03.898Z,3.37
2023-02-09T11:33:39.413Z,3.39
2023-02-09T11:36:14.529Z,3.44
2023-02-09T11:38:44.870Z,3.48
2023-02-09T11:41:13.260Z,3.54
2023-02-09T11:43:41.119Z,3.59
2023-02-09T11:46:12.184Z,3.65
2023-02-09T11:48:43.162Z,3.70
2023-02-09T11:51:11.690Z,3.73
2023-02-09T11:53:42.467Z,3.75
2023-02-09T11:56:10.705Z,3.80
2023-02-09T11:58:40.333Z,3.88
2023-02-09T12:01:15.842Z,3.96
2023-02-09T12:03:50.039Z,4.01
2023-02-09T12:06:17.299Z,4.04
2023-02-09T12:08:49.120Z,4.07
2023-02-09T12:11:21.986Z,4.10
2023-02-09T12:13:55.920Z,4.13
2023-02-09T12:16:24.549Z,4.18
2023-02-09T12:18:53.190Z,4.23
2023-02-09T12:21:27.051Z,4.31
2023-02-09T12:23:53.401Z,4.38
2023-02-09T12:26:27.103Z,4.45
2023-02-09T12:28:57.888Z,4.51
2023-02-09T12:31:26.021Z,4.57
2023-02-09T12:34:11.064Z,4.64
2023-02-09T12:36:58.659Z,4.67
2023-02-09T12:39:25.808Z,4.71
2023-02-09T12:42:09.762Z,4.73
2023-02-09T12:44:36.940Z,4.79
2023-02-09T12:47:03.287Z,4.87
2023-02-09T12:49:32.926Z,4.94
2023-02-09T12:52:14.464Z,4.99
2023-02-09T12:54:42.523Z,5.02
2023-02-09T12:57:27.780Z,5.08
2023-02-09T13:00:09.001Z,5.16
2023-02-09T13:02:37.004Z,5.12
2023-02-09T13:05:07.245Z,5.13
2023-02-09T13:07:40.007Z,5.14
2023-02-09T13:10:13.492Z,5.15
2023-02-09T13:12:42.343Z,5.16
2023-02-09T13:15:12.500Z,5.16
2023-02-09T13:17:39.604Z,5.13
2023-02-09T13:20:20.805Z,5.09
2023-02-09T13:22:56.894Z,5.07
2023-02-09T13:25:29.349Z,5.09
2023-02-09T13:27:55.710Z,5.09
2023-02-09T13:30:26.223Z,5.09
2023-02-09T13:32:58.236Z,5.08
2023-02-09T13:35:27.296Z,5.12
2023-02-09T13:37:56.582Z,5.15
2023-02-09T13:40:24.267Z,5.11
2023-02-09T13:42:52.658Z,5.14
2023-02-09T13:45:19.215Z,5.12
2023-02-09T13:47:45.668Z,5.09
2023-02-09T13:50:13.887Z,5.06
2023-02-09T13:52:40.408Z,5.05
2023-02-09T13:55:12.642Z,5.02
2023-02-09T13:57:40.605Z,5.00
2023-02-09T14:00:09.766Z,4.99
2023-02-09T14:02:37.670Z,4.98
2023-02-09T14:05:06.890Z,4.96
2023-02-09T14:07:33.912Z,4.95
2023-02-09T14:10:02.786Z,4.95
2023-02-09T14:12:36.900Z,4.94
2023-02-09T14:15:03.456Z,4.93
2023-02-09T14:17:30.956Z,4.92
2023-02-09T14:19:58.340Z,4.94
2023-02-09T14:22:32.081Z,4.95
2023-02-09T14:24:58.780Z,4.96
2023-02-09T14:27:26.737Z,4.98
2023-02-09T14:29:54.840Z,5.01
2023-02-09T14:32:32.426Z,5.04
2023-02-09T14:35:00.496Z,5.05
2023-02-09T14:37:28.264Z,5.06
2023-02-09T14:39:55.445Z,5.04
2023-02-09T14:42:22.193Z,5.00
2023-02-09T14:44:50.814Z,4.99
2023-02-09T14:47:29.186Z,5.02
2023-02-09T14:49:56.341Z,4.99
2023-02-09T14:52:23.983Z,4.99
2023-02-09T14:54:50.357Z,4.95
2023-02-09T14:57:16.734Z,4.94
2023-02-09T14:59:43.040Z,4.91
2023-02-09T15:02:15.022Z,4.87
2023-02-09T15:04:42.737Z,4.85
2023-02-09T15:07:11.903Z,4.83
2023-02-09T15:09:38.568Z,4.83
2023-02-09T15:12:05.992Z,4.84
2023-02-09T15:14:33.658Z,4.83
2023-02-09T15:16:59.949Z,4.81
2023-02-09T15:19:26.252Z,4.82
2023-02-09T15:22:06.688Z,4.84
2023-02-09T15:24:34.042Z,4.82
2023-02-09T15:27:01.002Z,4.79
2023-02-09T15:29:27.414Z,4.80
2023-02-09T15:31:55.641Z,4.79
2023-02-09T15:34:21.963Z,4.77
2023-02-09T15:36:48.308Z,4.76
2023-02-09T15:39:18.797Z,4.75
2023-02-09T15:41:45.136Z,4.76
2023-02-09T15:44:13.929Z,4.77
2023-02-09T15:46:40.370Z,4.75
2023-02-09T15:49:06.727Z,4.76
2023-02-09T15:51:34.926Z,4.73
2023-02-09T15:54:02.679Z,4.72
2023-02-09T15:56:30.385Z,4.72
2023-02-09T15:58:56.698Z,4.72
2023-02-09T16:01:23.098Z,4.69
2023-02-09T16:03:49.414Z,4.67
2023-02-09T16:06:17.467Z,4.64
2023-02-09T16:08:44.136Z,4.62
2023-02-09T16:11:16.266Z,4.58
2023-02-09T16:13:43.890Z,4.55
2023-02-09T16:16:17.079Z,4.54
2023-02-09T16:18:44.281Z,4.51
2023-02-09T16:21:13.988Z,4.48
2023-02-09T16:23:40.409Z,4.47
2023-02-09T16:26:06.712Z,4.46
2023-02-09T16:28:33.108Z,4.46
2023-02-09T16:31:00.857Z,4.47
2023-02-09T16:33:27.206Z,4.43
2023-02-09T16:35:54.642Z,4.41
2023-02-09T16:38:21.719Z,4.39
2023-02-09T16:40:48.308Z,4.36
2023-02-09T16:43:14.804Z,4.34
2023-02-09T16:45:48.488Z,4.32
2023-02-09T16:48:23.560Z,4.31
2023-02-09T16:50:50.805Z,4.30
2023-02-09T16:53:19.012Z,4.27
2023-02-09T16:55:48.109Z,4.27
2023-02-09T16:58:15.951Z,4.26
2023-02-09T17:00:43.648Z,4.26
2023-02-09T17:03:13.756Z,4.25
2023-02-09T17:05:43.100Z,4.24
2023-02-09T17:08:11.995Z,4.24
2023-02-09T17:10:38.319Z,4.24
2023-02-09T17:13:04.615Z,4.24
2023-02-09T17:15:34.520Z,4.25
2023-02-09T17:18:03.773Z,4.25
2023-02-09T17:20:32.664Z,4.24
2023-02-09T17:23:00.318Z,4.24
2023-02-09T17:25:26.699Z,4.24
2023-02-09T17:27:53.091Z,4.25
2023-02-09T17:30:19.629Z,4.26
2023-02-09T17:32:48.310Z,4.26
2023-02-09T17:35:15.299Z,4.28
2023-02-09T17:37:42.211Z,4.30
2023-02-09T17:40:13.340Z,4.29
2023-02-09T17:42:41.208Z,4.29
2023-02-09T17:45:13.901Z,4.28
2023-02-09T17:47:40.213Z,4.29
2023-02-09T17:50:06.702Z,4.28
2023-02-09T17:52:32.996Z,4.27
2023-02-09T17:54:59.294Z,4.26
2023-02-09T17:57:25.644Z,4.25
2023-02-09T17:59:53.280Z,4.24
2023-02-09T18:02:19.589Z,4.24
2023-02-09T18:04:46.125Z,4.24
2023-02-09T18:07:12.570Z,4.28
2023-02-09T18:09:38.910Z,4.27
2023-02-09T18:12:08.002Z,4.27
2023-02-09T18:14:34.410Z,4.25
2023-02-09T18:17:02.246Z,4.25
2023-02-09T18:19:28.705Z,4.24
2023-02-09T18:21:56.014Z,4.23
2023-02-09T18:24:23.625Z,4.23
2023-02-09T18:26:50.145Z,4.21
2023-02-09T18:29:16.483Z,4.20
2023-02-09T18:31:42.844Z,4.20
2023-02-09T18:34:10.546Z,4.20
2023-02-09T18:36:36.847Z,4.20
2023-02-09T18:39:03.390Z,4.20
2023-02-09T18:41:29.756Z,4.20
2023-02-09T18:43:56.335Z,4.21
2023-02-09T18:46:23.134Z,4.21
2023-02-09T18:48:49.613Z,4.21
2023-02-09T18:51:17.440Z,4.20
2023-02-09T18:53:43.725Z,4.20
2023-02-09T18:56:13.487Z,4.19
2023-02-09T18:58:39.825Z,4.20
2023-02-09T19:01:09.499Z,4.19
2023-02-09T19:03:35.799Z,4.20
2023-02-09T19:06:02.103Z,4.20
2023-02-09T19:08:29.779Z,4.21
2023-02-09T19:10:56.101Z,4.21
2023-02-09T19:13:22.382Z,4.20
2023-02-09T19:15:49.037Z,4.20
2023-02-09T19:18:15.601Z,4.20
2023-02-09T19:20:41.937Z,4.21
2023-02-09T19:23:08.219Z,4.21
2023-02-09T19:25:36.120Z,4.22
2023-02-09T19:28:02.495Z,4.24
2023-02-09T19:30:28.823Z,4.22
2023-02-09T19:32:56.155Z,4.21
2023-02-09T19:35:22.470Z,4.20
2023-02-09T19:37:52.311Z,4.22
2023-02-09T19:40:18.698Z,4.22
2023-02-09T19:42:46.350Z,4.21
2023-02-09T19:45:12.676Z,4.22
2023-02-09T19:47:38.969Z,4.20
2023-02-09T19:50:05.618Z,4.15
2023-02-09T19:52:32.003Z,4.12
2023-02-09T19:54:58.304Z,4.12
2023-02-09T19:57:24.634Z,4.11
2023-02-09T19:59:52.662Z,4.10
2023-02-09T20:02:19.002Z,4.09
2023-02-09T20:04:45.384Z,4.11
2023-02-09T20:07:12.369Z,4.12
2023-02-09T20:09:38.699Z,4.13
2023-02-09T20:12:05.312Z,4.14
2023-02-09T20:14:33.143Z,4.15
2023-02-09T20:17:01.330Z,4.17
2023-02-09T20:19:27.786Z,4.17
2023-02-09T20:21:54.121Z,4.19
2023-02-09T20:24:20.462Z,4.22
2023-02-09T20:26:47.054Z,4.24
2023-02-09T20:29:13.460Z,4.26
2023-02-09T20:31:40.847Z,4.26
2023-02-09T20:34:09.962Z,4.28
2023-02-09T20:36:38.113Z,4.29
2023-02-09T20:39:04.605Z,4.29
2023-02-09T20:41:31.116Z,4.30
2023-02-09T20:43:57.445Z,4.30
2023-02-09T20:46:24.819Z,4.29
2023-02-09T20:48:51.216Z,4.28
2023-02-09T20:51:18.986Z,4.27
2023-02-09T20:53:45.309Z,4.25
2023-02-09T20:56:12.151Z,4.23
2023-02-09T20:58:38.492Z,4.20
2023-02-09T21:01:05.287Z,4.19
2023-02-09T21:03:31.630Z,4.17
2023-02-09T21:05:57.942Z,4.13
2023-02-09T21:08:25.579Z,4.10
2023-02-09T21:10:54.621Z,4.07
2023-02-09T21:13:20.979Z,4.01
2023-02-09T21:15:47.305Z,3.94
2023-02-09T21:18:13.598Z,3.85
2023-02-09T21:20:39.888Z,3.78
2023-02-09T21:23:06.193Z,3.71
2023-02-09T21:25:33.986Z,3.65
2023-02-09T21:28:00.532Z,3.57
2023-02-09T21:30:27.587Z,3.53
2023-02-09T21:32:54.164Z,3.53
2023-02-09T21:35:20.878Z,3.48
2023-02-09T21:37:47.235Z,3.48
2023-02-09T21:40:13.697Z,3.44
2023-02-09T21:42:41.783Z,3.42
2023-02-09T21:45:08.499Z,3.44
2023-02-09T21:47:35.590Z,3.44
2023-02-09T21:50:01.945Z,3.42
2023-02-09T21:52:28.613Z,3.43
2023-02-09T21:54:55.142Z,3.44
2023-02-09T21:57:21.778Z,3.43
2023-02-09T21:59:49.466Z,3.41
2023-02-09T22:02:16.657Z,3.37
2023-02-09T22:04:43.349Z,3.34
2023-02-09T22:07:09.879Z,3.28
2023-02-09T22:09:36.486Z,3.24
2023-02-09T22:12:03.470Z,3.19
2023-02-09T22:14:29.811Z,3.14
2023-02-09T22:16:57.604Z,3.13
2023-02-09T22:19:24.319Z,3.12
2023-02-09T22:21:50.721Z,3.10
2023-02-09T22:24:17.765Z,3.15
2023-02-09T22:26:44.322Z,3.23
2023-02-09T22:29:11.760Z,3.27
2023-02-09T22:31:38.178Z,3.33
2023-02-09T22:34:06.130Z,3.38
2023-02-09T22:36:32.770Z,3.41
2023-02-09T22:38:59.070Z,3.47
2023-02-09T22:41:25.366Z,3.51
2023-02-09T22:43:52.248Z,3.56
2023-02-09T22:46:19.283Z,3.59
2023-02-09T22:48:49.453Z,3.63
2023-02-09T22:51:17.249Z,3.69
2023-02-09T22:53:43.743Z,3.71
2023-02-09T22:56:10.080Z,3.72
2023-02-09T22:58:36.387Z,3.75
2023-02-09T23:01:02.787Z,3.77
2023-02-09T23:03:29.110Z,3.80
2023-02-09T23:05:55.429Z,3.82
2023-02-09T23:08:23.203Z,3.82
2023-02-09T23:10:49.523Z,3.81
2023-02-09T23:13:15.830Z,3.81
2023-02-09T23:15:42.180Z,3.84
2023-02-09T23:18:08.542Z,3.85
2023-02-09T23:20:34.842Z,3.89
2023-02-09T23:23:01.154Z,3.95
2023-02-09T23:25:29.150Z,4.00
2023-02-09T23:27:55.490Z,4.03
2023-02-09T23:30:21.860Z,4.01
2023-02-09T23:32:48.174Z,4.02
2023-02-09T23:35:14.679Z,4.01
2023-02-09T23:37:41.008Z,3.99
2023-02-09T23:40:07.737Z,3.99
2023-02-09T23:42:35.409Z,4.07
2023-02-09T23:45:01.751Z,3.99
2023-02-09T23:47:28.067Z,3.96
2023-02-09T23:49:54.396Z,3.94
2023-02-09T23:52:20.742Z,3.94
2023-02-09T23:54:47.022Z,3.95
2023-02-09T23:57:13.297Z,3.96
2023-02-09T23:59:40.963Z,3.95
